Flight Track Log - Related Links

Times and Time Zones

All times are in EDT time to prevent confusion due to time zone crossing. See the N52643 flight status page for this flight to view local times or setup timezone preferences in your user account.

Time Position Orientation Groundspeed Altitude Reporting Facility
EDT Latitude Longitude Course Direction KTS MPH feet Rate Location/Type
Tue 01:13:27 PM 39.7536 -82.6717 218° Southwest 63 72 1,200  Level Indianapolis Center
Tue 01:14:52 PM 39.7303 -82.6953 218° Southwest 81 93 1,900 500 Climbing Indianapolis Center
Tue 01:15:15 PM 39.7236 -82.7008 213° Southwest 87 100 2,100 492 Climbing Indianapolis Center
Tue 01:15:53 PM 39.7114 -82.7167 225° Southwest 90 104 2,400 484 Climbing Indianapolis Center
Tue 01:16:17 PM 39.7044 -82.7214 208° Southwest 86 99 2,600 486 Climbing Indianapolis Center
Tue 01:16:30 PM 39.7000 -82.7286 231° Southwest 90 104 2,700 387 Climbing Indianapolis Center
Tue 01:17:19 PM 39.6867 -82.7433 220° Southwest 87 100 3,000 424 Climbing Indianapolis Center
Tue 01:17:55 PM 39.6817 -82.7664 254° West 81 93 3,300 492 Climbing Indianapolis Center
Tue 01:18:20 PM 39.6811 -82.7783 267° West 87 100 3,500 444 Climbing Indianapolis Center
Tue 01:18:49 PM 39.6808 -82.7964 269° West 88 101 3,700 387 Climbing Indianapolis Center
Tue 01:19:22 PM 39.6797 -82.8108 264° West 88 101 3,900 269 Climbing Indianapolis Center
Tue 01:19:56 PM 39.6778 -82.8283 262° West 90 104 4,000 97 Climbing Indianapolis Center
Tue 01:20:24 PM 39.6753 -82.8425 257° West 88 101 4,000  Level Indianapolis Center
Tue 01:21:26 PM 39.6700 -82.8808 260° West 98 113 4,000  Level Indianapolis Center
Tue 01:21:51 PM 39.6664 -82.9056 259° West 123 142 4,000  Level Indianapolis Center
Tue 01:22:28 PM 39.6653 -82.9222 265° West 109 125 4,000  Level Indianapolis Center
Tue 01:22:52 PM 39.6628 -82.9431 261° West 112 129 4,000  Level Indianapolis Center
Tue 01:23:30 PM 39.6597 -82.9628 259° West 110 127 4,000  Level Indianapolis Center
Tue 01:24:05 PM 39.6558 -82.9933 261° West 115 132 4,000  Level Indianapolis Center
Tue 01:24:31 PM 39.6553 -83.0039 266° West 111 128 4,000  Level Indianapolis Center
Tue 01:24:41 PM 39.6533 -83.0203 261° West 119 137 4,000  Level Indianapolis Center
Tue 01:25:33 PM 39.6483 -83.0567 260° West 118 136 4,000  Level Indianapolis Center
Tue 01:26:00 PM 39.6456 -83.0789 261° West 129 148 4,000  Level Indianapolis Center
Tue 01:26:35 PM 39.6433 -83.1028 263° West 124 143 4,000  Level Indianapolis Center
Tue 01:27:01 PM 39.6411 -83.1242 262° West 123 142 4,000  Level Indianapolis Center
Tue 01:27:37 PM 39.6383 -83.1453 260° West 124 143 4,000  Level Indianapolis Center
Tue 01:27:50 PM 39.6378 -83.1592 267° West 116 133 4,000  Level Indianapolis Center
Tue 01:28:39 PM 39.6331 -83.1853 257° West 119 137 4,000  Level Indianapolis Center
Tue 01:28:56 PM 39.6314 -83.2042 263° West 114 131 4,000  Level Indianapolis Center
Tue 01:29:41 PM 39.6294 -83.2264 264° West 116 133 4,000  Level Indianapolis Center
Tue 01:29:51 PM 39.6281 -83.2389 262° West 112 129 4,000  Level Indianapolis Center
Tue 01:30:42 PM 39.6239 -83.2678 259° West 116 133 4,000  Level Indianapolis Center
Tue 01:30:52 PM 39.6217 -83.2814 258° West 120 138 4,000  Level Indianapolis Center
Tue 01:31:44 PM 39.6186 -83.3103 262° West 116 133 4,000  Level Indianapolis Center
Tue 01:32:46 PM 39.6131 -83.3631 262° West 118 136 4,000  Level Indianapolis Center
Tue 01:33:48 PM 39.6072 -83.4067 260° West 120 138 4,000  Level Indianapolis Center
Tue 01:34:50 PM 39.6014 -83.4486 260° West 120 138 4,000  Level Indianapolis Center
Tue 01:36:54 PM 39.5978 -83.5306 264° West 117 135 4,000  Level Indianapolis Center
Tue 01:37:55 PM 39.6006 -83.5731 275° West 117 135 4,000  Level Indianapolis Center
Tue 01:38:51 PM 39.6028 -83.6181 274° West 113 130 4,000  Level Indianapolis Center
Tue 01:39:46 PM 39.6033 -83.6536 271° West 108 124 4,000  Level Indianapolis Center
Tue 01:39:59 PM 39.6047 -83.6533 North 115 132 4,000  Level Indianapolis Center
Tue 01:40:53 PM 39.6069 -83.7003 274° West 120 138 4,000  Level Indianapolis Center
Tue 01:41:48 PM 39.6094 -83.7389 275° West 118 136 4,000  Level Indianapolis Center
Tue 01:42:03 PM 39.6097 -83.7450 273° West 114 131 4,000  Level Indianapolis Center
Tue 01:43:00 PM 39.6108 -83.7853 272° West 119 137 4,000  Level Indianapolis Center
Tue 01:43:55 PM 39.6133 -83.8239 275° West 118 136 4,000  Level Indianapolis Center
Tue 01:44:06 PM 39.6131 -83.8267 263° West 114 131 4,000  Level Indianapolis Center
Tue 01:44:50 PM 39.6156 -83.8622 275° West 115 132 4,000  Level Indianapolis Center
Tue 01:45:08 PM 39.6161 -83.8683 277° West 114 131 4,000  Level Indianapolis Center
Tue 01:45:57 PM 39.6192 -83.9092 276° West 122 140 4,000  Level Indianapolis Center
Tue 01:46:10 PM 39.6197 -83.9111 290° West 114 131 4,000  Level Indianapolis Center
Tue 01:47:11 PM 39.6231 -83.9558 276° West 118 136 4,000  Level Indianapolis Center
Tue 01:48:13 PM 39.6267 -84.0056 275° West 119 137 4,000  Level Indianapolis Center
Tue 01:49:11 PM 39.6281 -84.0467 273° West 111 128 4,000  Level Indianapolis Center
Tue 01:49:59 PM 39.6286 -84.0794 271° West 115 132 4,000  Level Indianapolis Center
Tue 01:50:16 PM 39.6292 -84.0867 276° West 115 132 4,000  Level Indianapolis Center
Tue 01:51:00 PM 39.6308 -84.1206 274° West 126 145 4,000  Level Indianapolis Center
Tue 01:51:18 PM 39.6317 -84.1314 276° West 116 133 4,000  Level Indianapolis Center
Tue 01:52:01 PM 39.6344 -84.1647 276° West 123 142 4,000  Level Indianapolis Center
Tue 01:52:20 PM 39.6356 -84.1747 278° West 118 136 4,000  Level Indianapolis Center
Tue 01:53:08 PM 39.6372 -84.2169 273° West 122 140 4,000  Level Indianapolis Center
Tue 01:53:21 PM 39.6383 -84.2192 303° West 119 137 4,000  Level Indianapolis Center
Tue 01:54:23 PM 39.6339 -84.2633 263° West 120 138 4,000  Level Indianapolis Center
Tue 01:55:25 PM 39.6253 -84.3081 256° West 122 140 4,000  Level Indianapolis Center
Tue 01:56:26 PM 39.6164 -84.3631 258° West 126 145 4,000  Level Indianapolis Center
Tue 01:57:28 PM 39.6089 -84.4069 258° West 127 146 4,000  Level Indianapolis Center
Tue 01:58:29 PM 39.6036 -84.4489 261° West 125 144 4,000  Level Indianapolis Center
Tue 01:59:31 PM 39.5986 -84.4900 261° West 122 140 4,000  Level Indianapolis Center
Tue 02:00:33 PM 39.5911 -84.5281 256° West 115 132 4,000  Level Indianapolis Center
Tue 02:01:34 PM 39.5856 -84.5658 259° West 110 127 4,000  Level Indianapolis Center
Tue 02:02:36 PM 39.5786 -84.6083 258° West 113 130 4,000  Level Indianapolis Center
Tue 02:03:38 PM 39.5714 -84.6600 260° West 118 136 4,000  Level Indianapolis Center
Tue 02:04:39 PM 39.5653 -84.7039 260° West 118 136 4,000  Level Indianapolis Center
Tue 02:05:41 PM 39.5581 -84.7450 257° West 119 137 4,000  Level Indianapolis Center
Tue 02:06:42 PM 39.5500 -84.7867 256° West 119 137 4,000  Level Indianapolis Center
Tue 02:07:44 PM 39.5444 -84.8292 260° West 119 137 4,000  Level Indianapolis Center
Tue 02:08:46 PM 39.5378 -84.8742 259° West 119 137 4,000  Level Indianapolis Center
Tue 02:09:47 PM 39.5311 -84.9142 258° West 118 136 4,000  Level Indianapolis Center
Tue 02:10:49 PM 39.5242 -84.9522 257° West 116 133 4,000  Level Indianapolis Center
Tue 02:11:51 PM 39.5186 -84.9922 260° West 116 133 4,000  Level Indianapolis Center
Tue 02:12:52 PM 39.5128 -85.0303 259° West 114 131 4,000  Level Indianapolis Center
Tue 02:13:54 PM 39.5069 -85.0692 259° West 114 131 4,000  Level Indianapolis Center
Tue 02:14:56 PM 39.5003 -85.1117 259° West 114 131 4,000  Level Indianapolis Center
Tue 02:15:57 PM 39.4922 -85.1647 259° West 121 139 4,000  Level Indianapolis Center
Tue 02:16:59 PM 39.4847 -85.2058 257° West 121 139 4,000  Level Indianapolis Center
Tue 02:18:01 PM 39.4781 -85.2464 258° West 120 138 4,000  Level Indianapolis Center
Tue 02:19:02 PM 39.4717 -85.2869 258° West 117 135 4,000  Level Indianapolis Center
Tue 02:20:04 PM 39.4664 -85.3278 261° West 117 135 4,000  Level Indianapolis Center
Tue 02:21:06 PM 39.4586 -85.3681 256° West 117 135 4,000  Level Indianapolis Center
Tue 02:22:08 PM 39.4514 -85.4094 257° West 117 135 4,000  Level Indianapolis Center
Tue 02:23:10 PM 39.4442 -85.4578 259° West 117 135 4,000  Level Indianapolis Center
Tue 02:24:11 PM 39.4458 -85.5000 273° West 117 135 4,000  Level Indianapolis Center
Tue 02:25:13 PM 39.4500 -85.5406 278° West 117 135 4,000  Level Indianapolis Center
Tue 02:26:15 PM 39.4511 -85.5817 272° West 117 135 4,000  Level Indianapolis Center
Tue 02:27:17 PM 39.4536 -85.6244 274° West 117 135 4,000  Level Indianapolis Center
Tue 02:28:18 PM 39.4547 -85.6719 272° West 125 144 4,000  Level Indianapolis Center
Tue 02:29:20 PM 39.4569 -85.7156 274° West 125 144 4,000  Level Indianapolis Center
Tue 02:30:22 PM 39.4589 -85.7647 273° West 122 140 4,000  Level Indianapolis Center
Tue 02:31:24 PM 39.4567 -85.8069 266° West 118 136 4,000  Level Indianapolis Center
Tue 02:32:25 PM 39.4514 -85.8542 262° West 123 142 4,000  Level Indianapolis Center
Tue 02:33:27 PM 39.4453 -85.8981 260° West 124 143 4,000  Level Indianapolis Center
Tue 02:34:29 PM 39.4414 -85.9378 263° West 120 138 4,000  Level Indianapolis Center
Tue 02:35:31 PM 39.4358 -85.9811 261° West 120 138 4,000  Level Indianapolis Center
Tue 02:36:33 PM 39.4347 -86.0236 268° West 120 138 4,000  Level Indianapolis Center
Tue 02:37:35 PM 39.4400 -86.0725 278° West 119 137 4,000  Level Indianapolis Center
Tue 02:38:36 PM 39.4425 -86.1128 275° West 118 136 4,000  Level Indianapolis Center
Tue 02:39:38 PM 39.4433 -86.1525 272° West 115 132 4,000  Level Indianapolis Center
Tue 02:40:40 PM 39.4436 -86.1967 270° West 116 133 4,000  Level Indianapolis Center
Tue 02:41:42 PM 39.4422 -86.2392 268° West 119 137 4,000  Level Indianapolis Center
Tue 02:42:44 PM 39.4333 -86.2789 254° West 116 133 4,000  Level Indianapolis Center
Tue 02:43:46 PM 39.4269 -86.3200 259° West 116 133 4,000  Level Indianapolis Center
Tue 02:44:48 PM 39.4150 -86.3667 252° West 116 133 4,000  Level Indianapolis Center
Tue 02:45:50 PM 39.4078 -86.4069 257° West 115 132 4,000  Level Indianapolis Center
Tue 02:46:52 PM 39.3981 -86.4489 253° West 116 133 4,000  Level Indianapolis Center
Tue 02:47:54 PM 39.3892 -86.4917 255° West 119 137 4,000  Level Indianapolis Center
Tue 02:48:55 PM 39.3811 -86.5369 257° West 124 143 4,000  Level Indianapolis Center
Tue 02:49:57 PM 39.3722 -86.5817 256° West 126 145 4,000  Level Indianapolis Center
Tue 02:50:59 PM 39.3636 -86.6211 254° West 122 140 4,000  Level Indianapolis Center
Tue 02:52:01 PM 39.3528 -86.6681 253° West 116 133 4,000  Level Indianapolis Center
Tue 02:53:03 PM 39.3444 -86.7083 255° West 116 133 4,000  Level Indianapolis Center
Tue 02:54:05 PM 39.3369 -86.7500 257° West 116 133 4,000  Level Indianapolis Center
Tue 02:55:07 PM 39.3272 -86.7894 252° West 116 133 4,000  Level Indianapolis Center
Tue 02:56:09 PM 39.3186 -86.8311 255° West 116 133 4,000  Level Indianapolis Center
Tue 02:57:11 PM 39.3111 -86.8708 256° West 116 133 4,000  Level Indianapolis Center
Tue 02:58:13 PM 39.3014 -86.9206 256° West 117 135 4,000  Level Indianapolis Center
Tue 02:59:50 PM 39.2875 -86.9817 254° West 118 136 4,000  Level Kansas City Center
Tue 03:00:52 PM 39.2783 -87.0250 255° West 118 136 4,000  Level Kansas City Center
Tue 03:01:52 PM 39.2747 -87.0656 263° West 118 136 4,000 -48 Level Kansas City Center
Tue 03:02:56 PM 39.2664 -87.1175 258° West 118 136 3,900 -48 Descending Kansas City Center
Tue 03:03:58 PM 39.2558 -87.1589 252° West 118 136 3,900  Level Kansas City Center
Tue 03:04:58 PM 39.2481 -87.2008 257° West 118 136 3,900  Level Kansas City Center
Tue 03:06:01 PM 39.2386 -87.2425 254° West 118 136 3,900  Level Kansas City Center
Tue 03:07:04 PM 39.2300 -87.2861 256° West 119 137 3,900  Level Kansas City Center
Tue 03:08:05 PM 39.2200 -87.3297 254° West 121 139 3,900  Level Kansas City Center
Tue 03:09:09 PM 39.2086 -87.3833 255° West 124 143 3,900  Level Kansas City Center
Tue 03:10:09 PM 39.1986 -87.4281 254° West 125 144 3,900  Level Kansas City Center
Tue 03:11:13 PM 39.1894 -87.4703 254° West 125 144 3,900  Level Kansas City Center
Tue 03:12:13 PM 39.1800 -87.5108 253° West 125 144 3,900  Level Kansas City Center
Tue 03:13:17 PM 39.1725 -87.5517 257° West 123 142 3,900  Level Kansas City Center
Tue 03:14:18 PM 39.1639 -87.5908 254° West 120 138 3,900  Level Kansas City Center
Tue 03:15:22 PM 39.1544 -87.6317 253° West 120 138 3,900  Level Kansas City Center
Tue 03:16:22 PM 39.1439 -87.6828 255° West 120 138 3,900  Level Kansas City Center
Tue 03:17:23 PM 39.1342 -87.7247 253° West 120 138 3,900  Level Kansas City Center
Tue 03:18:28 PM 39.1250 -87.7675 255° West 120 138 3,900  Level Kansas City Center
Tue 03:19:28 PM 39.1147 -87.8100 253° West 120 138 3,900  Level Kansas City Center
Tue 03:20:31 PM 39.1056 -87.8547 255° West 122 140 3,900  Level Kansas City Center
Tue 03:21:32 PM 39.0967 -87.9003 256° West 125 144 3,900 48 Level Kansas City Center
Tue 03:22:35 PM 39.0844 -87.9511 253° West 126 145 4,000 48 Climbing Kansas City Center
Tue 03:23:36 PM 39.0767 -87.9950 257° West 126 145 4,000  Level Kansas City Center
Tue 03:24:40 PM 39.0669 -88.0375 254° West 126 145 4,000  Level Kansas City Center
Tue 03:25:41 PM 39.0558 -88.0778 250° West 126 145 4,000  Level Kansas City Center
Tue 03:26:42 PM 39.0464 -88.1217 255° West 125 144 4,000  Level Kansas City Center
Tue 03:27:46 PM 39.0367 -88.1647 254° West 125 144 4,000  Level Kansas City Center
Tue 03:28:47 PM 39.0275 -88.2047 254° West 124 143 4,000  Level Kansas City Center
Tue 03:29:48 PM 39.0175 -88.2522 255° West 120 138 4,000  Level Kansas City Center
Tue 03:30:52 PM 39.0097 -88.2928 256° West 120 138 4,000  Level Kansas City Center
Tue 03:31:52 PM 38.9992 -88.3350 252° West 120 138 4,000  Level Kansas City Center
Tue 03:32:57 PM 38.9892 -88.3789 254° West 121 139 4,000  Level Kansas City Center
Tue 03:33:58 PM 38.9803 -88.4208 255° West 121 139 4,000  Level Kansas City Center
Tue 03:34:59 PM 38.9703 -88.4647 254° West 121 139 4,000  Level Kansas City Center
Tue 03:36:02 PM 38.9589 -88.5167 254° West 122 140 4,000  Level Kansas City Center
Tue 03:37:03 PM 38.9483 -88.5617 253° West 124 143 4,000  Level Kansas City Center
Tue 03:38:07 PM 38.9386 -88.6064 254° West 126 145 4,000  Level Kansas City Center
Tue 03:39:07 PM 38.9281 -88.6442 250° West 127 146 4,000  Level Kansas City Center
Tue 03:40:11 PM 38.9164 -88.6983 255° West 127 146 4,000  Level Kansas City Center
Tue 03:41:11 PM 38.9086 -88.7422 257° West 128 147 4,000  Level Kansas City Center
Tue 03:42:14 PM 38.8981 -88.7850 252° West 128 147 4,000  Level Kansas City Center
Tue 03:43:16 PM 38.8858 -88.8275 250° West 128 147 4,000  Level Kansas City Center
Tue 03:44:19 PM 38.8767 -88.8703 255° West 128 147 4,000  Level Kansas City Center
Tue 03:45:21 PM 38.8661 -88.9139 253° West 128 147 4,000  Level Kansas City Center
Tue 03:46:22 PM 38.8536 -88.9647 252° West 128 147 4,000  Level Kansas City Center
Tue 03:47:25 PM 38.8442 -89.0069 254° West 127 146 4,000  Level Kansas City Center
Tue 03:48:27 PM 38.8344 -89.0489 253° West 124 143 4,000  Level Kansas City Center
Tue 03:49:27 PM 38.8261 -89.0950 257° West 128 147 4,000  Level Kansas City Center
Tue 03:50:32 PM 38.8144 -89.1372 250° West 128 147 4,000  Level Kansas City Center
Tue 03:51:32 PM 38.8036 -89.1811 252° West 128 147 4,000  Level Kansas City Center
Tue 03:52:36 PM 38.7919 -89.2319 254° West 127 146 4,000  Level Kansas City Center
Tue 03:53:37 PM 38.7811 -89.2750 252° West 127 146 4,000  Level Kansas City Center
Tue 03:54:38 PM 38.7792 -89.3228 267° West 125 144 4,000  Level Kansas City Center
Tue 03:55:42 PM 38.7767 -89.3694 266° West 127 146 4,000  Level Kansas City Center
Tue 03:56:43 PM 38.7739 -89.4178 266° West 127 146 4,000  Level Kansas City Center
Tue 03:57:46 PM 38.7706 -89.4628 265° West 127 146 4,000  Level Kansas City Center
Tue 03:58:48 PM 38.7678 -89.5128 266° West 128 147 4,000  Level Kansas City Center
Tue 03:59:49 PM 38.7650 -89.5589 266° West 128 147 4,000  Level Kansas City Center
Tue 04:00:50 PM 38.7600 -89.6083 263° West 129 148 4,000  Level Kansas City Center
Tue 04:01:54 PM 38.7578 -89.6539 266° West 129 148 4,000 -95 Level Kansas City Center
Tue 04:02:56 PM 38.7550 -89.6944 265° West 129 148 3,800 -295 Descending Kansas City Center
Tue 04:03:56 PM 38.7339 -89.7486 243° Southwest 142 163 3,400 -393 Descending Kansas City Center
Tue 04:04:58 PM 38.7164 -89.7942 244° Southwest 142 163 3,000 -236 Descending Kansas City Center
Tue 04:06:03 PM 38.6994 -89.8350 242° Southwest 132 152 2,900 -48 Descending Kansas City Center
Tue 04:07:03 PM 38.6847 -89.8722 243° Southwest 123 142 2,900 -50 Level Kansas City Center
Tue 04:08:04 PM 38.6694 -89.9097 242° Southwest 120 138 2,800 -288 Descending Kansas City Center
Tue 04:09:08 PM 38.6508 -89.9561 243° Southwest 126 145 2,300 -432 Descending Kansas City Center
Tue 04:10:09 PM 38.6333 -90.0003 243° Southwest 127 146 1,900 -384 Descending Kansas City Center
Tue 04:11:13 PM 38.6181 -90.0392 243° Southwest 127 146 1,500 -339 Descending Kansas City Center
Tue 04:12:13 PM 38.6028 -90.0769 243° Southwest 123 142 1,200 -146 Descending Kansas City Center
Tue 04:13:16 PM 38.5903 -90.1092 244° Southwest 104 120 1,200  Level Kansas City Center
Tue 04:14:18 PM 38.5792 -90.1389 244° Southwest 96 110 1,200 -146 Level Kansas City Center
Tue 04:15:19 PM 38.5869 -90.1711 287° West 94 108 900 -336 Descending Kansas City Center
Tue 04:16:23 PM 38.5675 -90.1594 155° Southeast 87 100 500 -375 Descending Kansas City Center
Tue 04:18:00 PM 38.5704 -90.1551 96° East  Level Estimated

Login

Don't have an account? Register now (free) for customized features, flight alerts, and more!